createdAt,value
2018-12-13T00:00:58.511Z,0.87
2018-12-13T00:03:26.963Z,0.85
2018-12-13T00:05:55.477Z,0.81
2018-12-13T00:08:23.984Z,0.91
2018-12-13T00:10:52.434Z,0.93
2018-12-13T00:13:20.924Z,0.95
2018-12-13T00:15:49.442Z,0.99
2018-12-13T00:18:17.957Z,1.03
2018-12-13T00:20:46.448Z,1.05
2018-12-13T00:23:14.879Z,1.05
2018-12-13T00:25:43.301Z,1.05
2018-12-13T00:28:11.777Z,1.07
2018-12-13T00:30:40.276Z,1.10
2018-12-13T00:33:08.750Z,-0.84
2018-12-13T00:35:37.272Z,1.12
2018-12-13T00:38:05.719Z,1.09
2018-12-13T00:40:34.182Z,1.11
2018-12-13T00:43:02.642Z,1.12
2018-12-13T00:45:31.098Z,1.11
2018-12-13T00:47:59.555Z,1.13
2018-12-13T00:50:28.047Z,1.13
2018-12-13T00:52:56.474Z,1.12
2018-12-13T00:55:25.586Z,1.13
2018-12-13T00:57:54.106Z,1.13
2018-12-13T01:00:22.595Z,1.13
2018-12-13T01:02:51.030Z,1.13
2018-12-13T01:05:19.543Z,1.08
2018-12-13T01:07:48.011Z,1.10
2018-12-13T01:10:16.699Z,1.12
2018-12-13T01:12:45.211Z,1.13
2018-12-13T01:15:13.798Z,1.16
2018-12-13T01:17:42.236Z,1.18
2018-12-13T01:20:10.698Z,1.22
2018-12-13T01:22:39.128Z,1.25
2018-12-13T01:25:07.658Z,1.29
2018-12-13T01:27:36.093Z,1.30
2018-12-13T01:30:04.806Z,1.28
2018-12-13T01:32:33.233Z,1.29
2018-12-13T01:35:01.722Z,1.31
2018-12-13T01:37:30.179Z,1.31
2018-12-13T01:39:58.870Z,0.86
2018-12-13T01:42:27.355Z,1.34
2018-12-13T01:44:55.783Z,1.37
2018-12-13T01:47:24.234Z,1.41
2018-12-13T01:49:52.680Z,1.41
2018-12-13T01:54:46.599Z,1.42
2018-12-13T01:57:15.070Z,1.41
2018-12-13T01:59:43.542Z,1.40
2018-12-13T02:02:12.067Z,1.41
2018-12-13T02:04:40.560Z,1.42
2018-12-13T02:07:09.019Z,1.42
2018-12-13T02:09:37.447Z,1.45
2018-12-13T02:12:05.909Z,1.44
2018-12-13T02:14:34.352Z,1.41
2018-12-13T02:17:02.803Z,1.41
2018-12-13T02:19:31.387Z,1.41
2018-12-13T02:21:59.819Z,1.42
2018-12-13T02:24:28.291Z,1.40
2018-12-13T02:26:56.743Z,1.40
2018-12-13T02:29:25.603Z,1.46
2018-12-13T02:31:54.008Z,1.48
2018-12-13T02:34:22.517Z,1.46
2018-12-13T02:36:50.948Z,1.52
2018-12-13T02:39:19.368Z,1.50
2018-12-13T02:41:47.862Z,1.51
2018-12-13T02:44:16.351Z,1.48
2018-12-13T02:46:44.797Z,1.49
2018-12-13T02:49:13.263Z,1.50
2018-12-13T02:51:41.743Z,0.95
2018-12-13T02:54:10.196Z,1.51
2018-12-13T02:56:38.946Z,1.49
2018-12-13T02:59:07.367Z,1.50
2018-12-13T03:01:35.811Z,1.54
2018-12-13T03:04:04.330Z,1.57
2018-12-13T03:06:32.758Z,1.58
2018-12-13T03:09:01.183Z,1.59
2018-12-13T03:11:29.657Z,1.58
2018-12-13T03:13:58.157Z,1.57
2018-12-13T03:16:26.703Z,1.56
2018-12-13T03:18:55.159Z,1.58
2018-12-13T03:21:23.685Z,1.59
2018-12-13T03:23:52.143Z,1.58
2018-12-13T03:26:20.623Z,1.60
2018-12-13T03:28:49.065Z,1.61
2018-12-13T03:31:17.548Z,1.64
2018-12-13T03:33:46.172Z,1.65
2018-12-13T03:36:14.617Z,1.66
2018-12-13T03:38:43.082Z,1.68
2018-12-13T03:41:11.630Z,1.67
2018-12-13T03:43:40.083Z,1.67
2018-12-13T03:46:08.538Z,1.69
2018-12-13T03:48:37.037Z,1.68
2018-12-13T03:51:05.574Z,1.69
2018-12-13T03:53:34.027Z,1.69
2018-12-13T03:56:02.519Z,1.69
2018-12-13T03:58:30.950Z,1.70
2018-12-13T04:00:59.390Z,1.70
2018-12-13T04:03:27.870Z,1.71
2018-12-13T04:05:56.321Z,1.70
2018-12-13T04:08:24.787Z,1.71
2018-12-13T04:10:53.239Z,1.65
2018-12-13T04:13:21.720Z,1.68
2018-12-13T04:15:50.182Z,1.66
2018-12-13T04:18:19.726Z,1.65
2018-12-13T04:20:48.631Z,1.61
2018-12-13T04:23:17.098Z,1.65
2018-12-13T04:25:45.638Z,1.65
2018-12-13T04:28:14.084Z,1.65
2018-12-13T04:30:42.528Z,1.62
2018-12-13T04:33:11.011Z,1.62
2018-12-13T04:35:39.455Z,1.60
2018-12-13T04:38:07.917Z,1.58
2018-12-13T04:40:36.406Z,1.58
2018-12-13T04:43:04.832Z,1.59
2018-12-13T04:45:33.303Z,1.56
2018-12-13T04:48:01.747Z,1.53
2018-12-13T04:50:30.187Z,1.52
2018-12-13T04:52:58.623Z,1.53
2018-12-13T04:55:27.118Z,1.49
2018-12-13T04:57:55.578Z,1.52
2018-12-13T05:00:23.976Z,1.54
2018-12-13T05:02:52.448Z,1.53
2018-12-13T05:05:20.886Z,1.45
2018-12-13T05:07:49.338Z,1.55
2018-12-13T05:13:19.492Z,1.44
2018-12-13T05:15:48.046Z,1.44
2018-12-13T05:18:16.528Z,1.47
2018-12-13T05:20:44.994Z,1.46
2018-12-13T05:23:13.483Z,1.46
2018-12-13T05:25:41.923Z,1.46
2018-12-13T05:28:10.371Z,1.43
2018-12-13T05:30:40.751Z,1.41
2018-12-13T05:33:09.195Z,1.40
2018-12-13T05:35:37.660Z,1.41
2018-12-13T05:38:06.153Z,1.43
2018-12-13T05:40:34.619Z,1.43
2018-12-13T05:43:03.052Z,1.41
2018-12-13T05:45:31.513Z,1.41
2018-12-13T05:47:59.952Z,1.37
2018-12-13T05:50:28.390Z,1.37
2018-12-13T05:52:56.876Z,1.37
2018-12-13T05:55:25.308Z,1.34
2018-12-13T05:57:53.768Z,1.33
2018-12-13T06:00:22.264Z,1.33
2018-12-13T06:02:50.728Z,1.33
2018-12-13T06:05:19.171Z,1.35
2018-12-13T06:07:47.668Z,1.38
2018-12-13T06:10:16.107Z,1.38
2018-12-13T06:12:44.959Z,1.41
2018-12-13T06:15:13.427Z,1.45
2018-12-13T06:17:41.851Z,1.38
2018-12-13T06:20:10.310Z,1.41
2018-12-13T06:22:38.797Z,1.34
2018-12-13T06:25:07.354Z,1.37
2018-12-13T06:27:35.803Z,1.37
2018-12-13T06:30:07.605Z,1.35
2018-12-13T06:32:36.635Z,1.34
2018-12-13T06:35:05.572Z,1.37
2018-12-13T06:37:34.058Z,1.34
2018-12-13T06:40:02.532Z,1.34
2018-12-13T06:42:30.988Z,1.29
2018-12-13T06:44:59.488Z,1.42
2018-12-13T06:47:27.964Z,1.53
2018-12-13T06:49:56.429Z,1.62
2018-12-13T06:52:24.914Z,1.64
2018-12-13T06:54:53.392Z,1.82
2018-12-13T06:57:21.842Z,1.92
2018-12-13T06:59:50.383Z,1.99
2018-12-13T07:02:18.869Z,1.99
2018-12-13T07:04:47.351Z,2.00
2018-12-13T07:07:15.834Z,1.96
2018-12-13T07:09:44.268Z,1.97
2018-12-13T07:12:12.769Z,1.99
2018-12-13T07:14:41.284Z,1.99
2018-12-13T07:17:09.768Z,-1.29
2018-12-13T07:19:38.277Z,1.81
2018-12-13T07:22:06.792Z,1.73
2018-12-13T07:24:35.279Z,1.64
2018-12-13T07:27:03.772Z,1.56
2018-12-13T07:29:32.394Z,1.45
2018-12-13T07:32:00.848Z,1.41
2018-12-13T07:34:29.315Z,1.35
2018-12-13T07:36:58.040Z,1.33
2018-12-13T07:39:26.489Z,1.31
2018-12-13T07:41:54.947Z,1.30
2018-12-13T07:44:23.470Z,1.26
2018-12-13T07:46:51.963Z,1.28
2018-12-13T07:49:20.824Z,1.27
2018-12-13T07:51:49.591Z,1.29
2018-12-13T07:54:18.043Z,1.32
2018-12-13T07:56:46.534Z,1.28
2018-12-13T07:59:15.047Z,1.33
2018-12-13T08:01:43.839Z,1.38
2018-12-13T08:04:12.290Z,1.35
2018-12-13T08:06:40.793Z,1.33
2018-12-13T08:09:09.269Z,1.34
2018-12-13T08:11:37.736Z,1.31
2018-12-13T08:14:06.331Z,1.30
2018-12-13T08:16:34.833Z,1.35
2018-12-13T08:19:03.324Z,1.37
2018-12-13T08:21:31.883Z,1.38
2018-12-13T08:24:00.403Z,1.40
2018-12-13T08:26:28.867Z,1.39
2018-12-13T08:28:57.395Z,1.34
2018-12-13T08:31:25.871Z,1.38
2018-12-13T08:33:54.332Z,1.37
2018-12-13T08:36:22.839Z,1.40
2018-12-13T08:38:51.307Z,1.42
2018-12-13T08:41:19.781Z,1.47
2018-12-13T08:43:48.319Z,1.48
2018-12-13T08:46:16.788Z,1.45
2018-12-13T08:48:45.251Z,1.45
2018-12-13T08:51:13.806Z,1.44
2018-12-13T08:53:42.230Z,1.45
2018-12-13T08:56:10.698Z,1.48
2018-12-13T08:58:39.186Z,1.51
2018-12-13T09:01:07.638Z,1.52
2018-12-13T09:03:36.131Z,1.54
2018-12-13T09:06:04.623Z,1.58
2018-12-13T09:08:33.730Z,1.51
2018-12-13T09:11:02.395Z,1.51
2018-12-13T09:13:30.888Z,1.46
2018-12-13T09:15:59.483Z,1.51
2018-12-13T09:18:27.947Z,1.53
2018-12-13T09:20:56.451Z,1.49
2018-12-13T09:23:24.892Z,1.45
2018-12-13T09:25:53.331Z,1.51
2018-12-13T09:28:21.883Z,1.37
2018-12-13T09:30:50.610Z,1.41
2018-12-13T09:33:19.320Z,1.42
2018-12-13T09:35:47.819Z,1.44
2018-12-13T09:38:16.339Z,1.42
2018-12-13T09:40:44.843Z,1.44
2018-12-13T09:43:13.579Z,1.42
2018-12-13T09:45:42.087Z,1.46
2018-12-13T09:48:10.552Z,1.46
2018-12-13T09:50:39.018Z,1.49
2018-12-13T09:53:07.558Z,1.47
2018-12-13T09:55:36.023Z,1.47
2018-12-13T09:58:04.489Z,1.53
2018-12-13T10:00:32.979Z,1.54
2018-12-13T10:03:01.483Z,1.56
2018-12-13T10:05:29.925Z,1.51
2018-12-13T10:07:58.755Z,1.53
2018-12-13T10:10:27.290Z,1.57
2018-12-13T10:12:55.879Z,1.60
2018-12-13T10:15:24.337Z,1.62
2018-12-13T10:17:52.836Z,1.62
2018-12-13T10:20:21.331Z,1.64
2018-12-13T10:22:49.807Z,1.57
2018-12-13T10:25:18.245Z,1.53
2018-12-13T10:27:46.703Z,1.54
2018-12-13T10:30:15.305Z,1.53
2018-12-13T10:32:43.777Z,1.48
2018-12-13T10:35:12.339Z,1.52
2018-12-13T10:37:40.833Z,1.48
2018-12-13T10:40:09.353Z,1.49
2018-12-13T10:42:38.179Z,1.51
2018-12-13T10:45:06.749Z,1.54
2018-12-13T10:47:35.227Z,1.52
2018-12-13T10:50:05.102Z,1.52
2018-12-13T10:52:33.533Z,1.57
2018-12-13T10:55:02.009Z,1.52
2018-12-13T10:57:30.518Z,1.54
2018-12-13T10:59:58.971Z,1.55
2018-12-13T11:02:32.267Z,1.53
2018-12-13T11:05:01.038Z,1.51
2018-12-13T11:07:29.507Z,1.41
2018-12-13T11:09:58.058Z,1.37
2018-12-13T11:12:26.483Z,1.42
2018-12-13T11:14:54.982Z,1.32
2018-12-13T11:17:23.435Z,1.30
2018-12-13T11:19:52.179Z,1.28
2018-12-13T11:22:20.692Z,1.25
2018-12-13T11:24:49.201Z,1.22
2018-12-13T11:27:29.590Z,1.25
2018-12-13T11:33:00.291Z,1.19
2018-12-13T11:35:28.788Z,1.21
2018-12-13T11:37:57.290Z,1.21
2018-12-13T11:40:25.721Z,1.23
2018-12-13T11:42:54.315Z,1.30
2018-12-13T11:45:22.907Z,1.34
2018-12-13T11:47:51.396Z,1.36
2018-12-13T11:50:19.875Z,1.38
2018-12-13T11:52:48.343Z,1.41
2018-12-13T11:55:33.967Z,1.23
2018-12-13T11:58:02.768Z,1.38
2018-12-13T12:00:31.230Z,1.40
2018-12-13T12:02:59.687Z,1.37
2018-12-13T12:05:28.156Z,1.40
2018-12-13T12:07:56.669Z,1.42
2018-12-13T12:10:25.270Z,1.41
2018-12-13T12:12:53.707Z,1.39
2018-12-13T12:15:22.200Z,1.42
2018-12-13T12:17:50.642Z,1.22
2018-12-13T12:20:19.083Z,1.44
2018-12-13T12:22:47.591Z,1.45
2018-12-13T12:25:16.063Z,1.51
2018-12-13T12:27:44.506Z,1.51
2018-12-13T12:30:13.823Z,1.56
2018-12-13T12:32:42.291Z,1.62
2018-12-13T12:35:10.892Z,1.65
2018-12-13T12:37:39.765Z,1.67
2018-12-13T12:40:08.438Z,1.61
2018-12-13T12:42:36.911Z,1.61
2018-12-13T12:45:05.629Z,1.56
2018-12-13T12:47:34.099Z,1.48
2018-12-13T12:50:02.577Z,1.47
2018-12-13T12:52:31.052Z,1.42
2018-12-13T12:54:59.509Z,1.40
2018-12-13T12:57:27.999Z,1.40
2018-12-13T12:59:56.795Z,1.45
2018-12-13T13:02:25.261Z,1.48
2018-12-13T13:04:53.779Z,1.54
2018-12-13T13:07:22.261Z,1.62
2018-12-13T13:09:50.719Z,1.58
2018-12-13T13:12:19.220Z,1.60
2018-12-13T13:14:47.693Z,1.62
2018-12-13T13:17:16.499Z,1.60
2018-12-13T13:19:44.979Z,1.61
2018-12-13T13:22:13.432Z,1.57
2018-12-13T13:24:41.935Z,1.51
2018-12-13T13:27:10.393Z,1.42
2018-12-13T13:29:38.863Z,-0.44
2018-12-13T13:32:07.692Z,1.38
2018-12-13T13:34:36.127Z,1.38
2018-12-13T13:37:04.606Z,1.37
2018-12-13T13:39:33.035Z,1.35
2018-12-13T13:42:01.520Z,1.30
2018-12-13T13:44:32.531Z,1.36
2018-12-13T13:47:01.043Z,0.76
2018-12-13T13:49:29.458Z,1.39
2018-12-13T13:51:59.778Z,1.41
2018-12-13T13:54:28.323Z,1.41
2018-12-13T13:56:56.803Z,1.40
2018-12-13T13:59:25.320Z,1.44
2018-12-13T14:01:53.841Z,1.49
2018-12-13T14:04:22.368Z,1.50
2018-12-13T14:06:50.855Z,1.48
2018-12-13T14:09:19.366Z,1.43
2018-12-13T14:11:48.113Z,1.40
2018-12-13T14:14:16.620Z,1.40
2018-12-13T14:16:45.059Z,1.37
2018-12-13T14:19:13.539Z,1.33
2018-12-13T14:21:42.028Z,1.31
2018-12-13T14:24:10.518Z,1.29
2018-12-13T14:26:38.989Z,1.26
2018-12-13T14:29:07.478Z,1.27
2018-12-13T14:31:35.989Z,1.24
2018-12-13T14:34:04.471Z,1.26
2018-12-13T14:36:32.920Z,1.24
2018-12-13T14:39:01.413Z,1.20
2018-12-13T14:41:29.875Z,1.17
2018-12-13T14:43:59.405Z,1.16
2018-12-13T14:46:27.871Z,1.15
2018-12-13T14:48:56.363Z,1.15
2018-12-13T14:51:24.845Z,1.15
2018-12-13T14:53:53.313Z,1.13
2018-12-13T14:56:21.787Z,1.12
2018-12-13T14:58:50.293Z,1.12
2018-12-13T15:01:18.703Z,1.10
2018-12-13T15:03:47.203Z,1.12
2018-12-13T15:06:15.725Z,1.07
2018-12-13T15:08:44.182Z,1.04
2018-12-13T15:11:12.729Z,0.99
2018-12-13T15:13:41.660Z,0.97
2018-12-13T15:16:10.203Z,1.14
2018-12-13T15:18:38.697Z,1.28
2018-12-13T15:21:07.152Z,1.45
2018-12-13T15:23:35.658Z,1.63
2018-12-13T15:26:04.121Z,1.70
2018-12-13T15:28:32.577Z,1.73
2018-12-13T15:31:01.096Z,1.74
2018-12-13T15:33:29.535Z,1.71
2018-12-13T15:35:58.003Z,1.76
2018-12-13T15:38:26.445Z,1.79
2018-12-13T15:40:54.904Z,1.75
2018-12-13T15:43:23.489Z,1.69
2018-12-13T15:45:51.950Z,1.69
2018-12-13T15:48:20.423Z,1.56
2018-12-13T15:50:48.921Z,1.48
2018-12-13T15:53:17.415Z,1.40
2018-12-13T15:55:45.884Z,1.32
2018-12-13T15:58:14.413Z,1.22
2018-12-13T16:00:42.894Z,1.16
2018-12-13T16:03:11.342Z,1.13
2018-12-13T16:05:39.860Z,1.11
2018-12-13T16:08:08.344Z,1.08
2018-12-13T16:10:36.794Z,0.87
2018-12-13T16:13:05.311Z,1.07
2018-12-13T16:15:33.776Z,1.34
2018-12-13T16:18:02.471Z,1.41
2018-12-13T16:20:32.001Z,1.42
2018-12-13T16:23:00.466Z,1.37
2018-12-13T16:25:28.944Z,1.27
2018-12-13T16:27:57.435Z,1.22
2018-12-13T16:30:26.130Z,1.21
2018-12-13T16:32:54.598Z,1.19
2018-12-13T16:35:23.120Z,1.18
2018-12-13T16:37:51.935Z,1.19
2018-12-13T16:40:20.474Z,1.15
2018-12-13T16:42:49.044Z,1.17
2018-12-13T16:45:17.585Z,1.13
2018-12-13T16:47:46.141Z,1.13
2018-12-13T16:50:14.747Z,1.11
2018-12-13T16:52:43.219Z,1.07
2018-12-13T16:55:11.744Z,1.09
2018-12-13T16:57:40.284Z,1.11
2018-12-13T17:00:09.773Z,1.14
2018-12-13T17:02:38.278Z,1.17
2018-12-13T17:05:06.885Z,1.21
2018-12-13T17:07:35.382Z,1.22
2018-12-13T17:10:04.519Z,1.22
2018-12-13T17:12:33.077Z,1.27
2018-12-13T17:15:01.706Z,1.27
2018-12-13T17:17:30.288Z,1.25
2018-12-13T17:19:59.268Z,1.26
2018-12-13T17:22:27.855Z,1.25
2018-12-13T17:24:56.435Z,1.25
2018-12-13T17:27:24.937Z,1.16
2018-12-13T17:29:53.462Z,1.27
2018-12-13T17:32:21.930Z,1.26
2018-12-13T17:34:50.513Z,1.26
2018-12-13T17:37:19.016Z,1.23
2018-12-13T17:39:47.505Z,1.19
2018-12-13T17:42:16.084Z,1.16
2018-12-13T17:44:44.590Z,1.15
2018-12-13T17:47:13.119Z,1.19
2018-12-13T17:49:41.953Z,1.20
2018-12-13T17:52:10.489Z,1.14
2018-12-13T17:54:39.052Z,1.10
2018-12-13T17:57:07.607Z,1.10
2018-12-13T17:59:36.155Z,1.11
2018-12-13T18:02:04.971Z,1.06
2018-12-13T18:04:33.524Z,1.03
2018-12-13T18:07:02.103Z,1.03
2018-12-13T18:09:30.628Z,1.04
2018-12-13T18:11:59.171Z,1.05
2018-12-13T18:14:27.768Z,1.04
2018-12-13T18:16:56.387Z,1.06
2018-12-13T18:19:25.363Z,1.03
2018-12-13T18:21:53.907Z,1.01
2018-12-13T18:24:22.460Z,1.06
2018-12-13T18:26:51.132Z,1.24
2018-12-13T18:29:19.706Z,1.21
2018-12-13T18:31:48.335Z,1.17
2018-12-13T18:34:16.947Z,1.14
2018-12-13T18:36:45.528Z,1.10
2018-12-13T18:39:14.272Z,1.05
2018-12-13T18:41:42.843Z,1.02
2018-12-13T18:44:11.344Z,1.00
2018-12-13T18:46:39.967Z,1.02
2018-12-13T18:49:08.572Z,1.06
2018-12-13T18:51:37.203Z,1.06
2018-12-13T18:54:05.727Z,1.03
2018-12-13T18:56:34.370Z,1.06
2018-12-13T18:59:03.350Z,1.02
2018-12-13T19:01:31.912Z,1.03
2018-12-13T19:04:00.471Z,1.04
2018-12-13T19:06:29.100Z,1.04
2018-12-13T19:08:57.720Z,1.00
2018-12-13T19:11:27.353Z,1.00
2018-12-13T19:13:55.938Z,1.02
2018-12-13T19:16:25.420Z,0.98
2018-12-13T19:18:54.519Z,0.97
2018-12-13T19:21:23.121Z,0.98
2018-12-13T19:23:53.160Z,0.99
2018-12-13T19:26:21.745Z,0.98
2018-12-13T19:28:50.361Z,0.98
2018-12-13T19:33:52.783Z,0.89
2018-12-13T19:36:21.896Z,0.92
2018-12-13T19:38:51.283Z,0.88
2018-12-13T19:41:20.315Z,0.88
2018-12-13T19:43:48.971Z,0.83
2018-12-13T19:46:19.266Z,1.14
2018-12-13T19:48:48.189Z,1.25
2018-12-13T19:51:17.141Z,1.12
2018-12-13T19:53:45.691Z,1.07
2018-12-13T19:56:15.803Z,1.02
2018-12-13T19:58:44.432Z,0.92
2018-12-13T20:01:13.050Z,0.87
2018-12-13T20:03:42.207Z,0.81
2018-12-13T20:06:11.052Z,0.77
2018-12-13T20:08:40.615Z,0.79
2018-12-13T20:11:09.231Z,0.76
2018-12-13T20:13:37.861Z,0.76
2018-12-13T20:16:06.456Z,0.77
2018-12-13T20:18:35.047Z,0.72
2018-12-13T20:21:05.005Z,0.70
2018-12-13T20:23:35.999Z,0.67
2018-12-13T20:26:05.057Z,0.67
2018-12-13T20:28:33.690Z,0.48
2018-12-13T20:31:02.891Z,0.75
2018-12-13T20:33:31.554Z,0.72
2018-12-13T20:36:00.155Z,0.71
2018-12-13T20:38:28.766Z,0.67
2018-12-13T20:41:00.972Z,0.74
2018-12-13T20:43:27.983Z,0.81
2018-12-13T20:45:56.631Z,0.66
2018-12-13T20:48:26.270Z,0.59
2018-12-13T20:50:54.889Z,0.60
2018-12-13T20:53:25.090Z,0.61
2018-12-13T20:55:53.827Z,0.64
2018-12-13T20:58:22.522Z,0.63
2018-12-13T21:00:51.958Z,0.66
2018-12-13T21:03:20.538Z,0.62
2018-12-13T21:05:49.163Z,0.57
2018-12-13T21:08:18.399Z,0.61
2018-12-13T21:10:47.001Z,0.71
2018-12-13T21:13:15.607Z,0.68
2018-12-13T21:15:44.272Z,0.65
2018-12-13T21:18:13.120Z,0.64
2018-12-13T21:20:41.755Z,0.65
2018-12-13T21:23:10.329Z,0.65
2018-12-13T21:25:38.969Z,0.67
2018-12-13T21:28:07.539Z,0.63
2018-12-13T21:30:36.452Z,0.64
2018-12-13T21:33:05.052Z,0.64
2018-12-13T21:35:33.664Z,0.67
2018-12-13T21:38:02.249Z,0.66
2018-12-13T21:40:30.827Z,0.67
2018-12-13T21:42:59.384Z,0.61
2018-12-13T21:45:27.977Z,0.62
2018-12-13T21:47:56.620Z,0.67
2018-12-13T21:50:25.118Z,0.66
2018-12-13T21:52:53.602Z,0.67
2018-12-13T21:55:22.129Z,0.58
2018-12-13T21:57:50.645Z,0.58
2018-12-13T22:00:19.115Z,0.53
2018-12-13T22:02:47.563Z,0.52
2018-12-13T22:05:16.033Z,0.50
2018-12-13T22:07:44.891Z,0.50
2018-12-13T22:10:13.344Z,0.50
2018-12-13T22:12:41.930Z,0.43
2018-12-13T22:15:11.307Z,0.41
2018-12-13T22:17:39.802Z,0.37
2018-12-13T22:20:08.269Z,0.36
2018-12-13T22:22:36.779Z,0.40
2018-12-13T22:25:07.090Z,0.42
2018-12-13T22:27:35.598Z,0.39
2018-12-13T22:30:04.979Z,0.40
2018-12-13T22:32:33.419Z,0.34
2018-12-13T22:35:01.906Z,0.33
2018-12-13T22:37:30.394Z,0.33
2018-12-13T22:39:58.922Z,0.39
2018-12-13T22:42:27.395Z,0.48
2018-12-13T22:44:55.836Z,0.39
2018-12-13T22:47:24.711Z,0.40
2018-12-13T22:49:53.215Z,0.38
2018-12-13T22:52:21.654Z,0.33
2018-12-13T22:54:50.170Z,-0.95
2018-12-13T22:57:18.906Z,0.35
2018-12-13T22:59:48.108Z,0.25
2018-12-13T23:02:16.582Z,0.27
2018-12-13T23:04:45.153Z,0.29
2018-12-13T23:07:13.950Z,0.41
2018-12-13T23:09:44.162Z,0.51
2018-12-13T23:12:13.322Z,0.51
2018-12-13T23:14:44.763Z,0.38
2018-12-13T23:17:13.263Z,0.36
2018-12-13T23:19:41.703Z,0.22
2018-12-13T23:22:10.186Z,0.30
2018-12-13T23:24:38.677Z,0.37
2018-12-13T23:27:07.212Z,0.34
2018-12-13T23:29:35.707Z,0.42
2018-12-13T23:32:04.618Z,0.34
2018-12-13T23:34:33.017Z,0.29
2018-12-13T23:37:01.477Z,0.42
2018-12-13T23:39:35.345Z,0.36
2018-12-13T23:42:03.803Z,0.28
2018-12-13T23:44:32.229Z,0.15
2018-12-13T23:47:00.905Z,0.18
2018-12-13T23:49:29.402Z,0.04
2018-12-13T23:51:58.329Z,0.31
2018-12-13T23:54:26.825Z,0.29
2018-12-13T23:56:55.283Z,0.22
2018-12-13T23:59:23.741Z,0.18
